Flight Track Log - Related Links

Times and Time Zones

All times are in EDT time to prevent confusion due to time zone crossing. See the FDX1570 flight status page for this flight to view local times or setup timezone preferences in your user account.

Time Position Orientation Groundspeed Altitude Reporting Facility
EDT Latitude Longitude Course Direction KTS MPH feet Rate Location/Type
Sat 04:41:50 AM 35.0167 -89.9667 65° Northeast 161 185 1,400  Level KMEM
Sat 04:42:26 AM 34.9833 -89.9667 180° South 217 250 2,600 2,589 Climbing KMEM
Sat 04:43:25 AM 34.9667 -89.8833 104° East 275 316 5,500 3,126 Climbing KMEM
Sat 04:44:25 AM 35.0000 -89.8000 64° Northeast 301 346 8,800 2,887 Climbing KMEM
Sat 04:45:38 AM 35.0453 -89.6925 63° Northeast 328 377 11,900 2,256 Climbing Memphis Center
Sat 04:46:38 AM 35.0883 -89.5678 67° East 364 419 13,800 2,350 Climbing Memphis Center
Sat 04:47:00 AM 35.2646 -89.0668 65° Northeast  Level FlightAware Approximate
Sat 04:47:38 AM 35.1353 -89.4378 66° East 407 468 16,600  Level Memphis Center
Sat 04:48:38 AM 35.1864 -89.2900 67° East 421 484 19,200 2,450 Climbing Memphis Center
Sat 04:49:38 AM 35.2372 -89.1494 66° East 439 505 21,500 2,100 Climbing Memphis Center
Sat 04:50:38 AM 35.3025 -89.0164 59° Northeast 450 518 23,400 1,739 Climbing Memphis Center
Sat 04:56:39 AM 35.8010 -88.1780 59° Northeast 516 594 33,700 1,719 Climbing FlightAware ADS-B
Sat 04:57:23 AM 35.8650 -88.0700 54° Northeast 513 590 35,000 1,683 Climbing FlightAware ADS-B
Sat 04:58:01 AM 35.9180 -87.9830 53° Northeast 511 588 36,000 1,350 Climbing FlightAware ADS-B
Sat 04:58:43 AM 35.9770 -87.8820 54° Northeast 515 593 36,800 1,326 Climbing FlightAware ADS-B
Sat 04:59:27 AM 36.0380 -87.7800 53° Northeast 509 586 37,900 1,071 Climbing FlightAware ADS-B
Sat 05:00:07 AM 36.0940 -87.6860 54° Northeast 516 594 38,300 786 Climbing FlightAware ADS-B
Sat 05:00:51 AM 36.1550 -87.5820 54° Northeast 507 583 39,000 488 Climbing FlightAware ADS-B
Sat 05:01:33 AM 36.2140 -87.4810 54° Northeast 509 586 39,000  Level FlightAware ADS-B
Sat 05:02:10 AM 36.2640 -87.3960 54° Northeast 512 589 39,000  Level FlightAware ADS-B
Sat 05:02:55 AM 36.3280 -87.2860 54° Northeast 515 593 39,000  Level FlightAware ADS-B
Sat 05:03:39 AM 36.3890 -87.1810 54° Northeast 515 593 39,000  Level FlightAware ADS-B
Sat 05:04:18 AM 36.4433 -87.0896 54° Northeast 515 593 39,000  Level FlightAware ADS-B
Sat 05:04:59 AM 36.5000 -86.9910 54° Northeast 513 590 39,000  Level FlightAware ADS-B
Sat 05:05:47 AM 36.5660 -86.8770 54° Northeast 511 588 39,000  Level FlightAware ADS-B
Sat 05:06:29 AM 36.6250 -86.7740 54° Northeast 509 586 39,000  Level FlightAware ADS-B
Sat 05:06:56 AM 36.6622 -86.7097 54° Northeast 511 588 39,000  Level FlightAware ADS-B
Sat 05:07:27 AM 36.7042 -86.6353 55° Northeast 512 589 39,000  Level FlightAware ADS-B
Sat 05:08:12 AM 36.7657 -86.5295 54° Northeast 514 592 39,000  Level FlightAware ADS-B
Sat 05:09:20 AM 36.8595 -86.3650 54° Northeast 514 592 39,000  Level FlightAware ADS-B
Sat 05:10:27 AM 36.9523 -86.2000 55° Northeast 515 593 39,000  Level FlightAware ADS-B
Sat 05:11:03 AM 37.0017 -86.1124 55° Northeast 516 594 39,000  Level FlightAware ADS-B
Sat 05:11:34 AM 37.0438 -86.0392 54° Northeast 516 594 39,000  Level FlightAware ADS-B
Sat 05:12:05 AM 37.0867 -85.9609 56° Northeast 518 596 39,000  Level FlightAware ADS-B
Sat 05:12:36 AM 37.1291 -85.8871 54° Northeast 518 596 39,000  Level FlightAware ADS-B
Sat 05:13:06 AM 37.1712 -85.8107 55° Northeast 519 597 39,000  Level FlightAware ADS-B
Sat 05:13:37 AM 37.2131 -85.7368 55° Northeast 520 598 39,000  Level FlightAware ADS-B
Sat 05:14:07 AM 37.2545 -85.6625 55° Northeast 520 598 39,000  Level FlightAware ADS-B
Sat 05:14:40 AM 37.2998 -85.5806 55° Northeast 522 601 39,000  Level FlightAware ADS-B
Sat 05:15:10 AM 37.3417 -85.5037 56° Northeast 523 602 39,000  Level FlightAware ADS-B
Sat 05:15:40 AM 37.3831 -85.4287 55° Northeast 523 602 39,000  Level FlightAware ADS-B
Sat 05:16:10 AM 37.4247 -85.3537 55° Northeast 524 603 39,000  Level FlightAware ADS-B
Sat 05:16:40 AM 37.4662 -85.2784 55° Northeast 525 604 39,000  Level FlightAware ADS-B
Sat 05:17:10 AM 37.5076 -85.2031 55° Northeast 524 603 39,000  Level FlightAware ADS-B
Sat 05:17:40 AM 37.5492 -85.1279 55° Northeast 524 603 39,000  Level FlightAware ADS-B
Sat 05:18:11 AM 37.5908 -85.0525 55° Northeast 524 603 39,000  Level FlightAware ADS-B
Sat 05:18:41 AM 37.6328 -84.9746 56° Northeast 524 603 39,000  Level FlightAware ADS-B
Sat 05:19:12 AM 37.6745 -84.8992 55° Northeast 523 602 39,000  Level FlightAware ADS-B
Sat 05:19:43 AM 37.7179 -84.8185 56° Northeast 525 604 39,000  Level FlightAware ADS-B
Sat 05:20:14 AM 37.7600 -84.7399 56° Northeast 525 604 39,000  Level FlightAware ADS-B
Sat 05:20:45 AM 37.8029 -84.6617 55° Northeast 526 605 39,000  Level FlightAware ADS-B
Sat 05:21:43 AM 37.8818 -84.5142 56° Northeast 526 605 39,000  Level FlightAware ADS-B
Sat 05:22:22 AM 37.9350 -84.4151 56° Northeast 524 603 39,000  Level FlightAware ADS-B
Sat 05:22:58 AM 37.9830 -84.3260 56° Northeast 523 602 39,000  Level FlightAware ADS-B
Sat 05:23:39 AM 38.0310 -84.2370 56° Northeast 523 602 39,000  Level FlightAware ADS-B
Sat 05:24:25 AM 38.0840 -84.1370 56° Northeast 523 602 39,000  Level FlightAware ADS-B
Sat 05:25:01 AM 38.1250 -84.0590 56° Northeast 523 602 39,000  Level FlightAware ADS-B
Sat 05:25:49 AM 38.1800 -83.9550 56° Northeast 523 602 39,000  Level FlightAware ADS-B
Sat 05:26:27 AM 38.2240 -83.8730 56° Northeast 523 602 39,000  Level FlightAware ADS-B
Sat 05:27:15 AM 38.2790 -83.7680 56° Northeast 523 602 39,000  Level FlightAware ADS-B
Sat 05:27:55 AM 38.3770 -83.5790 56° Northeast 529 609 39,000  Level FlightAware ADS-B
Sat 05:28:51 AM 38.4550 -83.4280 57° Northeast 535 616 39,000  Level FlightAware ADS-B
Sat 05:29:33 AM 38.5190 -83.3040 57° Northeast 537 618 39,000  Level FlightAware ADS-B
Sat 05:29:53 AM 38.5450 -83.2570 55° Northeast 537 618 39,000  Level FlightAware ADS-B
Sat 05:31:18 AM 38.6561 -83.0358 55° Northeast 531 611 39,000  Level Indianapolis Center
Sat 05:32:18 AM 38.7364 -82.8772 57° Northeast 528 608 39,000  Level Indianapolis Center
Sat 05:33:19 AM 38.8175 -82.7197 57° Northeast 526 605 39,000  Level Indianapolis Center
Sat 05:34:19 AM 38.8975 -82.5600 57° Northeast 529 609 39,000  Level Indianapolis Center
Sat 05:35:20 AM 38.9772 -82.4033 57° Northeast 524 603 39,000  Level Indianapolis Center
Sat 05:36:20 AM 39.0561 -82.2453 57° Northeast 520 598 39,000  Level Indianapolis Center
Sat 05:37:21 AM 39.1353 -82.0872 57° Northeast 520 598 39,000  Level Indianapolis Center
Sat 05:43:23 AM 39.6070 -81.1280 57° Northeast 525 604 39,000  Level FlightAware ADS-B
Sat 05:44:04 AM 39.6610 -81.0150 58° Northeast 525 604 39,000  Level FlightAware ADS-B
Sat 05:44:47 AM 39.7160 -80.9000 58° Northeast 523 602 39,000  Level FlightAware ADS-B
Sat 05:45:31 AM 39.7710 -80.7830 59° Northeast 523 602 39,000  Level FlightAware ADS-B
Sat 05:46:14 AM 39.8270 -80.6680 58° Northeast 522 601 39,000  Level FlightAware ADS-B
Sat 05:46:54 AM 39.8780 -80.5590 59° Northeast 522 601 39,000  Level FlightAware ADS-B
Sat 05:47:34 AM 39.9280 -80.4540 58° Northeast 522 601 39,000  Level FlightAware ADS-B
Sat 05:48:18 AM 39.9840 -80.3370 58° Northeast 521 600 39,000  Level FlightAware ADS-B
Sat 05:48:58 AM 40.0320 -80.2320 59° Northeast 521 600 39,000  Level FlightAware ADS-B
Sat 05:49:31 AM 40.0750 -80.1410 58° Northeast 520 598 39,000  Level FlightAware ADS-B
Sat 05:50:05 AM 40.1170 -80.0500 59° Northeast 519 597 39,000  Level FlightAware ADS-B
Sat 05:51:02 AM 40.1890 -79.8950 59° Northeast 517 595 39,000  Level FlightAware ADS-B
Sat 05:51:48 AM 40.2460 -79.7750 58° Northeast 516 594 39,000  Level FlightAware ADS-B
Sat 05:52:24 AM 40.2910 -79.6760 59° Northeast 514 592 39,000  Level FlightAware ADS-B
Sat 05:53:10 AM 40.3470 -79.5560 58° Northeast 515 593 39,000  Level FlightAware ADS-B
Sat 05:53:51 AM 40.3940 -79.4510 60° Northeast 515 593 39,000  Level FlightAware ADS-B
Sat 05:54:46 AM 40.4600 -79.3070 59° Northeast 514 592 39,000  Level FlightAware ADS-B
Sat 05:55:29 AM 40.5170 -79.1810 59° Northeast 513 590 39,000  Level FlightAware ADS-B
Sat 05:56:53 AM 40.6170 -78.9580 59° Northeast 514 592 39,000  Level FlightAware ADS-B
Sat 05:59:26 AM 40.8000 -78.5520 59° Northeast 516 594 39,000  Level FlightAware ADS-B
Sat 06:00:26 AM 40.8740 -78.3830 60° Northeast 518 596 39,000  Level FlightAware ADS-B
Sat 06:01:06 AM 40.9200 -78.2790 60° Northeast 520 598 39,000  Level FlightAware ADS-B
Sat 06:01:51 AM 40.9770 -78.1490 60° Northeast 520 598 39,000  Level FlightAware ADS-B
Sat 06:02:32 AM 41.0250 -78.0390 60° Northeast 520 598 39,000  Level FlightAware ADS-B
Sat 06:03:05 AM 41.0681 -77.9401 60° Northeast 520 598 39,000  Level FlightAware ADS-B
Sat 06:03:37 AM 41.1059 -77.8544 60° Northeast 521 600 39,000  Level FlightAware ADS-B
Sat 06:04:07 AM 41.1420 -77.7713 60° Northeast 521 600 39,000  Level FlightAware ADS-B
Sat 06:04:45 AM 41.1878 -77.6630 61° Northeast 523 602 39,000 -87 Level FlightAware ADS-B
Sat 06:05:16 AM 41.2245 -77.5793 60° Northeast 523 602 38,900 -649 Descending FlightAware ADS-B
Sat 06:05:59 AM 41.2841 -77.4596 56° Northeast 536 617 38,200 -984 Descending FlightAware ADS-B
Sat 06:06:17 AM 41.3121 -77.4134 51° Northeast 539 620 37,900 -1,019 Descending FlightAware ADS-B
Sat 06:06:52 AM 41.3692 -77.3292 48° Northeast 539 620 37,300 -1,015 Descending FlightAware ADS-B
Sat 06:07:22 AM 41.4195 -77.2528 49° Northeast 533 613 36,800 -968 Descending FlightAware ADS-B
Sat 06:07:54 AM 41.4711 -77.1769 48° Northeast 533 613 36,300 -938 Descending FlightAware ADS-B
Sat 06:08:26 AM 41.5240 -77.0978 48° Northeast 538 619 35,800 -968 Descending FlightAware ADS-B
Sat 06:08:56 AM 41.5741 -77.0234 48° Northeast 543 625 35,300 -984 Descending FlightAware ADS-B
Sat 06:09:27 AM 41.6263 -76.9451 48° Northeast 554 638 34,800 -1,658 Descending FlightAware ADS-B
Sat 06:10:12 AM 41.7034 -76.8275 49° Northeast 555 639 33,200 -2,483 Descending FlightAware ADS-B
Sat 06:11:23 AM 41.8196 -76.6521 48° Northeast 536 617 30,000 -2,935 Descending FlightAware ADS-B
Sat 06:12:31 AM 41.9190 -76.5020 48° Northeast 514 592 26,400 -3,027 Descending FlightAware ADS-B
Sat 06:13:16 AM 41.9890 -76.3960 48° Northeast 510 587 24,300 -1,800 Descending FlightAware ADS-B
Sat 06:13:51 AM 42.0430 -76.3120 49° Northeast 510 587 24,000 -212 Descending FlightAware ADS-B
Sat 06:14:41 AM 42.1280 -76.1820 49° Northeast 514 592 24,000  Level FlightAware ADS-B
Sat 06:15:49 AM 42.2003 -76.0164 49° Northeast 510 587 24,000  Level Boston Center
Sat 06:16:49 AM 42.2617 -75.8433 64° Northeast 505 581 24,000  Level Boston Center
Sat 06:17:49 AM 42.3236 -75.6583 66° East 499 574 24,000  Level Boston Center
Sat 06:18:49 AM 42.3822 -75.4928 64° Northeast 494 568 24,000 -50 Level Boston Center
Sat 06:19:49 AM 42.4411 -75.3183 65° Northeast 494 568 23,900 -1,350 Descending Boston Center
Sat 06:20:49 AM 42.4869 -75.1458 70° East 494 568 21,300 -3,150 Descending Boston Center
Sat 06:21:49 AM 42.5200 -74.9756 75° East 481 554 17,600 -3,450 Descending Boston Center
Sat 06:22:49 AM 42.5528 -74.8106 75° East 464 534 14,400 -3,140 Descending Boston Center
Sat 06:23:36 AM 42.5783 -74.6844 75° East 440 506 12,000 -1,889 Descending Boston Center
Sat 06:24:37 AM 42.6083 -74.5306 75° East 424 488 11,000 -931 Descending Boston Center
Sat 06:30:10 AM 42.8230 -73.9400 75° East 5,700 -922 Descending FlightAware ADS-B
Sat 06:30:20 AM 42.8320 -73.9270 47° Northeast 5,600 -632 Descending FlightAware ADS-B
Sat 06:30:48 AM 42.8610 -73.9070 27° Northeast 248 285 5,300 -725 Descending FlightAware ADS-B
Sat 06:31:51 AM 42.9210 -73.8800 18° North 205 236 4,500 -730 Descending FlightAware ADS-B
Sat 06:32:02 AM 42.9300 -73.8720 33° Northeast 204 235 4,400 -545 Descending FlightAware ADS-B
Sat 06:32:13 AM 42.9340 -73.8630 59° Northeast 201 231 4,300 -522 Descending FlightAware ADS-B
Sat 06:32:25 AM 42.9360 -73.8490 79° East 200 230 4,200 -1,146 Descending FlightAware ADS-B
Sat 06:33:42 AM 42.8778 -73.8114 79° East 186 214 2,600 -1,043 Descending Boston Center
Sat 06:34:43 AM 42.8339 -73.8133 182° South 152 175 1,800 -744 Descending Boston Center
Sat 06:35:43 AM 42.7986 -73.8097 176° South 115 132 1,100 -694 Descending Boston Center
Sat 06:36:44 AM 42.7611 -73.8089 179° South 123 142 400 -689 Descending Boston Center

Login

Don't have an account? Register now (free) for customized features, flight alerts, and more!